createdAt,value
2023-04-16T00:04:40.613Z,100.00
2023-04-16T00:09:43.558Z,100.00
2023-04-16T00:14:46.690Z,100.00
2023-04-16T00:19:51.049Z,100.00
2023-04-16T00:24:54.071Z,100.00
2023-04-16T00:29:57.024Z,100.00
2023-04-16T00:35:01.328Z,100.00
2023-04-16T00:40:04.351Z,100.00
2023-04-16T00:45:08.418Z,100.00
2023-04-16T00:50:13.370Z,99.58
2023-04-16T00:55:18.861Z,100.00
2023-04-16T01:00:22.086Z,100.00
2023-04-16T01:05:26.457Z,100.00
2023-04-16T01:10:29.823Z,99.68
2023-04-16T01:15:32.827Z,100.00
2023-04-16T01:20:37.481Z,99.72
2023-04-16T01:25:40.707Z,99.06
2023-04-16T01:30:44.000Z,98.38
2023-04-16T01:35:59.359Z,98.37
2023-04-16T01:41:02.261Z,99.51
2023-04-16T01:46:28.349Z,99.82
2023-04-16T01:51:32.747Z,99.66
2023-04-16T01:56:35.742Z,99.03
2023-04-16T02:01:38.788Z,99.98
2023-04-16T02:06:43.131Z,99.23
2023-04-16T02:11:46.077Z,98.20
2023-04-16T02:16:49.110Z,98.83
2023-04-16T02:22:11.475Z,97.75
2023-04-16T02:27:14.486Z,98.86
2023-04-16T02:32:18.333Z,98.42
2023-04-16T02:37:25.102Z,98.74
2023-04-16T02:42:28.638Z,99.93
2023-04-16T02:47:31.613Z,99.66
2023-04-16T02:52:35.890Z,99.65
2023-04-16T02:57:38.824Z,99.31
2023-04-16T03:02:42.670Z,99.11
2023-04-16T03:07:47.132Z,98.33
2023-04-16T03:12:51.289Z,98.24
2023-04-16T03:17:54.335Z,98.68
2023-04-16T03:22:58.623Z,98.33
2023-04-16T03:28:03.390Z,98.41
2023-04-16T03:33:06.658Z,98.83
2023-04-16T03:38:10.953Z,97.73
2023-04-16T03:43:15.231Z,98.36
2023-04-16T03:48:19.342Z,100.00
2023-04-16T03:53:23.821Z,99.81
2023-04-16T03:58:27.075Z,99.12
2023-04-16T04:03:30.391Z,98.80
2023-04-16T04:08:34.946Z,98.82
2023-04-16T04:13:39.906Z,98.53
2023-04-16T04:18:44.368Z,97.80
2023-04-16T04:23:49.192Z,97.34
2023-04-16T04:28:52.234Z,96.95
2023-04-16T04:33:55.512Z,96.12
2023-04-16T04:38:59.926Z,96.21
2023-04-16T04:44:03.824Z,95.65
2023-04-16T04:49:06.889Z,96.42
2023-04-16T04:54:11.276Z,95.66
2023-04-16T04:59:14.217Z,94.94
2023-04-16T05:04:18.226Z,94.57
2023-04-16T05:09:22.548Z,93.78
2023-04-16T05:14:25.543Z,94.34
2023-04-16T05:19:28.448Z,93.58
2023-04-16T05:24:32.764Z,93.92
2023-04-16T05:29:35.653Z,94.95
2023-04-16T05:34:38.644Z,95.34
2023-04-16T05:39:42.910Z,95.59
2023-04-16T05:44:45.795Z,96.13
2023-04-16T05:49:48.703Z,95.50
2023-04-16T05:54:53.001Z,94.44
2023-04-16T05:59:55.913Z,94.27
2023-04-16T06:04:58.876Z,93.69
2023-04-16T06:10:03.200Z,92.17
2023-04-16T06:15:07.087Z,91.46
2023-04-16T06:20:11.258Z,89.98
2023-04-16T06:25:17.661Z,90.37
2023-04-16T06:30:21.354Z,91.28
2023-04-16T06:35:24.281Z,91.11
2023-04-16T06:40:28.604Z,91.69
2023-04-16T06:45:31.497Z,92.84
2023-04-16T06:50:34.414Z,91.80
2023-04-16T06:55:38.677Z,92.76
2023-04-16T07:00:41.668Z,90.54
2023-04-16T07:05:44.622Z,89.94
2023-04-16T07:10:48.980Z,89.30
2023-04-16T07:15:52.024Z,87.58
2023-04-16T07:20:54.971Z,87.93
2023-04-16T07:25:59.223Z,87.92
2023-04-16T07:31:03.334Z,86.07
2023-04-16T07:36:06.727Z,86.19
2023-04-16T07:41:11.225Z,86.75
2023-04-16T07:46:14.202Z,84.70
2023-04-16T07:51:17.396Z,85.58
2023-04-16T07:56:21.635Z,82.67
2023-04-16T08:01:24.639Z,83.95
2023-04-16T08:06:27.762Z,80.49
2023-04-16T08:11:32.067Z,80.37
2023-04-16T08:16:34.997Z,78.48
2023-04-16T08:21:37.887Z,79.69
2023-04-16T08:26:42.171Z,78.11
2023-04-16T08:31:45.164Z,74.00
2023-04-16T08:36:48.105Z,75.71
2023-04-16T08:41:55.003Z,76.39
2023-04-16T08:46:59.234Z,77.13
2023-04-16T08:52:06.650Z,78.28
2023-04-16T08:57:13.645Z,78.93
2023-04-16T09:02:17.090Z,77.11
2023-04-16T09:07:22.066Z,79.53
2023-04-16T09:12:27.065Z,78.48
2023-04-16T09:17:30.157Z,76.29
2023-04-16T09:22:33.285Z,78.07
2023-04-16T09:27:37.825Z,77.83
2023-04-16T09:32:41.109Z,78.59
2023-04-16T09:37:44.084Z,76.79
2023-04-16T09:42:51.093Z,77.09
2023-04-16T09:47:54.121Z,76.54
2023-04-16T09:52:56.996Z,77.09
2023-04-16T09:58:02.308Z,73.82
2023-04-16T10:03:06.709Z,75.37
2023-04-16T10:08:14.144Z,77.00
2023-04-16T10:13:19.244Z,76.71
2023-04-16T10:18:23.173Z,72.59
2023-04-16T10:23:26.119Z,70.20
2023-04-16T10:28:30.611Z,69.72
2023-04-16T10:33:35.770Z,69.63
2023-04-16T10:38:42.677Z,68.59
2023-04-16T10:43:48.691Z,65.76
2023-04-16T10:48:54.114Z,66.06
2023-04-16T10:53:58.231Z,65.05
2023-04-16T10:59:05.349Z,69.63
2023-04-16T11:04:35.810Z,67.73
2023-04-16T11:09:52.667Z,66.83
2023-04-16T11:15:02.141Z,65.97
2023-04-16T11:20:19.315Z,72.53
2023-04-16T11:25:24.411Z,70.07
2023-04-16T11:30:33.900Z,65.23
2023-04-16T11:35:37.049Z,67.63
2023-04-16T11:40:39.980Z,66.82
2023-04-16T11:45:58.430Z,65.61
2023-04-16T11:51:01.430Z,64.86
2023-04-16T11:56:04.809Z,63.15
2023-04-16T12:01:10.106Z,63.66
2023-04-16T12:06:13.065Z,65.44
2023-04-16T12:11:16.046Z,64.48
2023-04-16T12:16:21.844Z,61.62
2023-04-16T12:21:24.787Z,63.18
2023-04-16T12:26:27.737Z,61.44
2023-04-16T12:31:39.360Z,61.96
2023-04-16T12:36:42.542Z,61.64
2023-04-16T12:41:45.849Z,60.43
2023-04-16T12:46:50.220Z,61.01
2023-04-16T12:51:53.137Z,59.09
2023-04-16T12:56:56.028Z,62.95
2023-04-16T13:02:02.265Z,59.45
2023-04-16T13:07:05.278Z,56.88
2023-04-16T13:12:08.772Z,59.45
2023-04-16T13:17:12.999Z,59.55
2023-04-16T13:22:15.959Z,62.65
2023-04-16T13:27:18.826Z,62.07
2023-04-16T13:32:24.255Z,63.04
2023-04-16T13:37:27.196Z,65.47
2023-04-16T13:42:30.116Z,63.51
2023-04-16T13:47:35.072Z,64.46
2023-04-16T13:52:38.048Z,62.38
2023-04-16T13:57:41.092Z,69.37
2023-04-16T14:02:45.961Z,72.37
2023-04-16T14:07:49.053Z,73.10
2023-04-16T14:12:52.071Z,74.04
2023-04-16T14:17:56.527Z,74.89
2023-04-16T14:22:59.767Z,74.25
2023-04-16T14:28:02.770Z,75.67
2023-04-16T14:33:07.678Z,75.76
2023-04-16T14:38:10.937Z,76.89
2023-04-16T14:43:13.875Z,77.09
2023-04-16T14:48:18.194Z,80.36
2023-04-16T14:53:21.198Z,81.42
2023-04-16T14:58:24.217Z,79.92
2023-04-16T15:03:28.750Z,78.32
2023-04-16T15:08:31.828Z,80.00
2023-04-16T15:13:34.725Z,81.41
2023-04-16T15:18:39.018Z,80.08
2023-04-16T15:23:41.988Z,78.12
2023-04-16T15:28:44.898Z,80.12
2023-04-16T15:33:49.164Z,79.92
2023-04-16T15:38:52.056Z,81.93
2023-04-16T15:43:54.916Z,83.15
2023-04-16T15:48:59.165Z,82.43
2023-04-16T15:54:02.029Z,81.58
2023-04-16T15:59:05.002Z,82.05
2023-04-16T16:04:09.584Z,84.60
2023-04-16T16:09:12.924Z,84.95
2023-04-16T16:14:18.570Z,81.72
2023-04-16T16:19:23.026Z,83.96
2023-04-16T16:24:26.550Z,83.11
2023-04-16T16:29:30.624Z,88.19
2023-04-16T16:34:34.935Z,89.05
2023-04-16T16:39:38.913Z,91.50
2023-04-16T16:44:41.975Z,90.56
2023-04-16T16:49:46.477Z,92.50
2023-04-16T16:54:49.349Z,92.40
2023-04-16T16:59:52.355Z,94.30
2023-04-16T17:04:59.041Z,94.34
2023-04-16T17:10:04.479Z,94.25
2023-04-16T17:15:09.957Z,97.68
2023-04-16T17:20:14.295Z,99.25
2023-04-16T17:25:17.271Z,100.00
2023-04-16T17:30:20.627Z,100.00
2023-04-16T17:35:25.359Z,100.00
2023-04-16T17:40:28.407Z,100.00
2023-04-16T17:45:31.380Z,100.00
2023-04-16T17:50:37.547Z,100.00
2023-04-16T17:55:42.749Z,100.00
2023-04-16T18:00:45.921Z,100.00
2023-04-16T18:05:50.149Z,100.00
2023-04-16T18:10:54.888Z,100.00
2023-04-16T18:15:57.820Z,100.00
2023-04-16T18:21:02.701Z,100.00
2023-04-16T18:26:08.331Z,100.00
2023-04-16T18:31:12.246Z,100.00
2023-04-16T18:36:17.254Z,100.00
2023-04-16T18:41:20.914Z,100.00
2023-04-16T18:46:24.035Z,100.00
2023-04-16T18:51:28.504Z,100.00
2023-04-16T18:56:31.572Z,100.00
2023-04-16T19:01:34.523Z,100.00
2023-04-16T19:06:38.864Z,100.00
2023-04-16T19:11:41.918Z,100.00
2023-04-16T19:16:45.050Z,100.00
2023-04-16T19:21:49.584Z,100.00
2023-04-16T19:26:52.508Z,100.00
2023-04-16T19:31:55.460Z,100.00
2023-04-16T19:36:59.754Z,100.00
2023-04-16T19:42:02.814Z,100.00
2023-04-16T19:47:06.859Z,100.00
2023-04-16T19:52:11.184Z,100.00
2023-04-16T19:57:14.097Z,100.00
2023-04-16T20:02:17.055Z,100.00
2023-04-16T20:07:21.570Z,100.00
2023-04-16T20:12:24.497Z,100.00
2023-04-16T20:17:27.427Z,100.00
2023-04-16T20:22:31.717Z,100.00
2023-04-16T20:27:35.234Z,100.00
2023-04-16T20:32:38.106Z,100.00
2023-04-16T20:37:43.124Z,100.00
2023-04-16T20:42:47.137Z,100.00
2023-04-16T20:47:50.037Z,100.00
2023-04-16T20:52:54.401Z,100.00
2023-04-16T20:57:57.316Z,100.00
2023-04-16T21:03:00.426Z,100.00
2023-04-16T21:08:04.898Z,100.00
2023-04-16T21:13:07.846Z,100.00
2023-04-16T21:18:11.500Z,100.00
2023-04-16T21:23:15.897Z,100.00
2023-04-16T21:28:18.828Z,100.00
2023-04-16T21:33:21.768Z,100.00
2023-04-16T21:38:26.091Z,100.00
2023-04-16T21:43:30.567Z,100.00
2023-04-16T21:48:33.488Z,100.00
2023-04-16T21:53:39.016Z,100.00
2023-04-16T21:58:41.969Z,100.00
2023-04-16T22:03:47.078Z,100.00
2023-04-16T22:08:51.612Z,100.00
2023-04-16T22:13:57.671Z,100.00
2023-04-16T22:19:00.591Z,100.00
2023-04-16T22:24:05.094Z,100.00
2023-04-16T22:29:08.221Z,100.00
2023-04-16T22:34:11.140Z,100.00
2023-04-16T22:39:15.868Z,100.00
2023-04-16T22:44:18.813Z,100.00
2023-04-16T22:49:21.764Z,100.00
2023-04-16T22:54:29.149Z,100.00
2023-04-16T22:59:32.211Z,100.00
2023-04-16T23:04:35.171Z,100.00
2023-04-16T23:09:39.445Z,100.00
2023-04-16T23:14:45.863Z,100.00
2023-04-16T23:19:48.879Z,100.00
2023-04-16T23:24:53.267Z,100.00
2023-04-16T23:29:56.118Z,100.00
2023-04-16T23:34:59.091Z,100.00
2023-04-16T23:40:04.080Z,100.00
2023-04-16T23:45:07.897Z,100.00
2023-04-16T23:50:11.312Z,100.00
2023-04-16T23:55:15.609Z,100.00
